Time;durP1;ratioP1;P1;durP2;ratioP2;P2;SDS_P1;SDS_P2;PMS_P1;PMS_P2;Temp;Humidity;BMP_temperature;BMP_pressure;BME280_temperature;BME280_humidity;BME280_pressure;Samples;Min_cycle;Max_cycle;Signal;HPM_P1;HPM_P2
2021/07/05 00:02:20;;;;;;;14.70;11.93;;;;;;;18.99;100.00;98569.59;1655367;86;20946;-75
2021/07/05 00:04:47;;;;;;;19.05;13.05;;;;;;;18.99;100.00;98569.00;1655089;86;21065;-74
2021/07/05 00:07:15;;;;;;;18.80;12.80;;;;;;;18.98;100.00;98570.78;1654946;86;20945;-74
2021/07/05 00:09:41;;;;;;;17.25;12.28;;;;;;;18.97;100.00;98572.77;1655138;86;20974;-74
2021/07/05 00:12:10;;;;;;;16.25;12.78;;;;;;;18.97;100.00;98574.76;1655052;86;21437;-76
2021/07/05 00:14:37;;;;;;;16.17;13.25;;;;;;;18.97;100.00;98571.38;1655126;86;20942;-74
2021/07/05 00:17:05;;;;;;;13.45;12.03;;;;;;;18.97;100.00;98568.60;1655095;86;21580;-74
2021/07/05 00:19:31;;;;;;;18.40;12.98;;;;;;;18.97;100.00;98565.82;1655084;86;20886;-74
2021/07/05 00:21:58;;;;;;;21.80;13.35;;;;;;;18.97;100.00;98567.80;1655140;86;20934;-73
2021/07/05 00:24:26;;;;;;;14.93;12.75;;;;;;;18.97;100.00;98566.41;1655074;86;20938;-73
2021/07/05 00:26:54;;;;;;;17.62;12.78;;;;;;;18.97;100.00;98569.20;1655069;86;21025;-73
2021/07/05 00:29:23;;;;;;;17.35;12.93;;;;;;;18.95;100.00;98565.42;1655157;86;20974;-75
2021/07/05 00:31:51;;;;;;;18.57;12.13;;;;;;;18.94;100.00;98573.56;1655091;86;20993;-74
2021/07/05 00:34:17;;;;;;;16.57;12.50;;;;;;;18.95;100.00;98570.19;1655364;86;21001;-74
2021/07/05 00:36:45;;;;;;;19.25;11.35;;;;;;;18.94;100.00;98571.38;1655097;86;20953;-73
2021/07/05 00:39:13;;;;;;;14.55;12.07;;;;;;;18.91;100.00;98563.23;1655305;86;21583;-73
2021/07/05 00:41:41;;;;;;;19.45;12.80;;;;;;;18.90;100.00;98565.80;1655111;86;20930;-73
2021/07/05 00:44:08;;;;;;;14.23;12.07;;;;;;;18.90;100.00;98560.84;1655370;85;20930;-74
2021/07/05 00:46:35;;;;;;;17.02;12.50;;;;;;;18.87;100.00;98556.86;1655225;86;20957;-73
2021/07/05 00:49:01;;;;;;;20.02;12.93;;;;;;;18.86;100.00;98562.23;1655433;86;20930;-73
2021/07/05 00:51:27;;;;;;;19.45;13.10;;;;;;;18.83;100.00;98551.89;1655294;86;21017;-73
2021/07/05 00:53:54;;;;;;;23.40;13.30;;;;;;;18.82;100.00;98546.73;1655446;86;20984;-73
2021/07/05 00:56:21;;;;;;;20.20;12.35;;;;;;;18.80;100.00;98547.91;1655159;86;20918;-73
2021/07/05 00:58:47;;;;;;;18.10;13.38;;;;;;;18.81;100.00;98552.88;1655538;86;21512;-73
2021/07/05 01:01:14;;;;;;;17.07;12.88;;;;;;;18.80;100.00;98554.86;1655184;86;21053;-73
2021/07/05 01:03:40;;;;;;;18.37;12.90;;;;;;;18.82;100.00;98553.08;1655285;86;21509;-73
2021/07/05 01:06:06;;;;;;;15.53;13.10;;;;;;;18.82;100.00;98556.45;1655266;86;21505;-72
2021/07/05 01:08:33;;;;;;;16.90;11.93;;;;;;;18.80;100.00;98561.02;1655406;86;21019;-71
2021/07/05 01:10:59;;;;;;;17.82;12.58;;;;;;;18.80;100.00;98555.46;1636551;86;20902;-72
2021/07/05 01:13:26;;;;;;;18.23;12.95;;;;;;;18.84;100.00;98554.08;1655150;86;20985;-72
2021/07/05 01:15:52;;;;;;;19.48;13.83;;;;;;;18.82;100.00;98558.64;1655537;86;21014;-72
2021/07/05 01:18:19;;;;;;;19.42;12.63;;;;;;;18.78;100.00;98565.59;1655252;86;21515;-72
2021/07/05 01:20:46;;;;;;;19.32;14.18;;;;;;;18.73;100.00;98563.19;1636659;86;21539;-74
2021/07/05 01:23:12;;;;;;;16.50;12.85;;;;;;;18.68;100.00;98564.97;1655225;86;21033;-74
2021/07/05 01:25:40;;;;;;;13.88;12.47;;;;;;;18.69;100.00;98560.20;1655412;86;20978;-73
2021/07/05 01:28:07;;;;;;;20.40;14.20;;;;;;;18.67;100.00;98564.77;1655179;86;21599;-73
2021/07/05 01:30:34;;;;;;;21.87;13.25;;;;;;;18.69;100.00;98570.73;1655426;86;21546;-72
2021/07/05 01:33:05;;;;;;;15.75;13.53;;;;;;;18.69;100.00;98569.92;1655157;86;20965;-72
2021/07/05 01:35:31;;;;;;;21.50;14.18;;;;;;;18.69;100.00;98574.89;1655519;86;21544;-72
2021/07/05 01:37:59;;;;;;;17.07;14.13;;;;;;;18.68;100.00;98566.35;1655138;86;20930;-73
2021/07/05 01:40:26;;;;;;;19.67;13.85;;;;;;;18.67;100.00;98561.19;1655204;86;20989;-72
2021/07/05 01:42:56;;;;;;;21.82;13.65;;;;;;;18.65;100.00;98570.52;1655280;86;22030;-72
2021/07/05 01:45:26;;;;;;;18.90;14.10;;;;;;;18.60;100.00;98568.91;1655345;86;20887;-72
2021/07/05 01:47:52;;;;;;;16.70;13.88;;;;;;;18.60;100.00;98573.64;1655423;86;20953;-71
2021/07/05 01:50:19;;;;;;;18.73;14.05;;;;;;;18.61;100.00;98579.44;1655304;86;21465;-72
2021/07/05 01:52:46;;;;;;;21.82;15.13;;;;;;;18.63;100.00;98578.45;1655260;86;20944;-73
2021/07/05 01:55:12;;;;;;;19.45;14.20;;;;;;;18.66;100.00;98574.29;1655231;86;21584;-72
2021/07/05 01:57:38;;;;;;;24.37;15.28;;;;;;;18.68;100.00;98574.69;1655138;86;20954;-72
2021/07/05 02:00:13;;;;;;;19.98;15.15;;;;;;;18.68;100.00;98578.06;1655136;86;20985;-72
2021/07/05 02:02:40;;;;;;;22.67;14.18;;;;;;;18.67;100.00;98573.70;1655196;86;20912;-72
2021/07/05 02:05:12;;;;;;;20.60;15.68;;;;;;;18.71;100.00;98581.45;1655245;86;21013;-73
2021/07/05 02:07:38;;;;;;;24.30;16.60;;;;;;;18.76;100.00;98579.68;1655163;86;21804;-72
2021/07/05 02:10:09;;;;;;;23.55;17.77;;;;;;;18.77;100.00;98584.05;1655114;86;20946;-72
2021/07/05 02:12:36;;;;;;;22.45;16.73;;;;;;;18.74;100.00;98587.02;1654543;86;20969;-73
2021/07/05 02:15:06;;;;;;;24.87;16.95;;;;;;;18.74;100.00;98587.02;1655221;86;21445;-73
2021/07/05 02:17:33;;;;;;;22.98;17.12;;;;;;;18.74;100.00;98591.78;1655381;86;20902;-73
2021/07/05 02:20:00;;;;;;;21.30;17.50;;;;;;;18.68;100.00;98592.77;1655217;86;21109;-73
2021/07/05 02:22:26;;;;;;;22.80;17.10;;;;;;;18.64;100.00;98593.94;1655259;86;21445;-73
2021/07/05 02:24:52;;;;;;;23.52;17.05;;;;;;;18.58;100.00;98592.10;1655142;86;20969;-73
2021/07/05 02:27:19;;;;;;;21.93;15.72;;;;;;;18.55;100.00;98586.53;1655378;86;21517;-73
2021/07/05 02:29:45;;;;;;;22.02;16.70;;;;;;;18.51;100.00;98582.94;1655444;86;20945;-73
2021/07/05 02:32:11;;;;;;;26.27;17.17;;;;;;;18.49;100.00;98584.72;1655177;86;21469;-73
2021/07/05 02:34:38;;;;;;;21.10;17.07;;;;;;;18.47;100.00;98580.18;1655124;86;20926;-73
2021/07/05 02:37:07;;;;;;;26.20;17.50;;;;;;;18.47;100.00;98582.95;1655228;86;21529;-73
2021/07/05 02:39:35;;;;;;;25.43;17.95;;;;;;;18.51;100.00;98578.18;1655104;86;21549;-73
2021/07/05 02:42:01;;;;;;;29.15;17.10;;;;;;;18.59;100.00;98576.22;1655534;86;20930;-73
2021/07/05 02:44:27;;;;;;;34.78;18.20;;;;;;;18.68;100.00;98579.45;1655418;86;20999;-73
2021/07/05 02:46:54;;;;;;;23.25;17.00;;;;;;;18.74;100.00;98580.66;1654989;86;20981;-75
2021/07/05 02:49:20;;;;;;;27.45;17.73;;;;;;;18.75;100.00;98582.25;1655438;86;21116;-74
2021/07/05 02:51:46;;;;;;;20.97;16.32;;;;;;;18.76;100.00;98576.90;1655183;86;21580;-74
2021/07/05 02:54:13;;;;;;;25.43;16.45;;;;;;;18.76;100.00;98581.86;1655198;86;20898;-73
2021/07/05 02:56:39;;;;;;;18.92;16.37;;;;;;;18.78;100.00;98576.70;1655447;86;21667;-73
2021/07/05 02:59:06;;;;;;;30.10;16.70;;;;;;;18.81;100.00;98587.63;1655063;86;21017;-74
2021/07/05 03:01:32;;;;;;;24.10;16.25;;;;;;;18.85;100.00;98586.25;1655374;86;20966;-74
2021/07/05 03:03:59;;;;;;;23.00;16.52;;;;;;;18.89;100.00;98585.66;1655101;86;20906;-73
2021/07/05 03:06:25;;;;;;;18.92;16.35;;;;;;;18.93;100.00;98585.08;1655493;86;21025;-73
2021/07/05 03:08:51;;;;;;;20.15;17.02;;;;;;;18.95;100.00;98581.31;1655052;86;21168;-73
2021/07/05 03:11:18;;;;;;;21.70;16.82;;;;;;;18.99;100.00;98591.25;1655353;86;20973;-74
2021/07/05 03:13:47;;;;;;;25.48;16.35;;;;;;;19.03;100.00;98596.23;1655195;86;21568;-74
2021/07/05 03:16:15;;;;;;;20.32;16.65;;;;;;;19.12;100.00;98598.59;1655062;86;21124;-74
2021/07/05 03:18:42;;;;;;;21.48;15.75;;;;;;;19.21;100.00;98596.22;1655139;86;20891;-74
2021/07/05 03:21:09;;;;;;;18.80;15.43;;;;;;;19.27;100.00;98601.59;1655188;86;21614;-74
2021/07/05 03:23:35;;;;;;;23.80;15.93;;;;;;;19.31;100.00;98599.61;1655297;86;20997;-74
2021/07/05 03:26:01;;;;;;;23.77;15.88;;;;;;;19.35;100.00;98599.61;1655234;86;20938;-74
2021/07/05 03:28:28;;;;;;;17.55;15.08;;;;;;;19.39;100.00;98601.80;1655071;86;21484;-74
2021/07/05 03:30:54;;;;;;;20.52;15.60;;;;;;;19.43;100.00;98600.61;1655208;86;21032;-74
2021/07/05 03:33:21;;;;;;;18.85;15.18;;;;;;;19.48;100.00;98604.19;1655444;86;22089;-74
2021/07/05 03:35:49;;;;;;;20.32;15.25;;;;;;;19.50;100.00;98605.38;1655015;86;20898;-75
2021/07/05 03:38:17;;;;;;;22.50;15.05;;;;;;;19.52;100.00;98600.24;1636758;86;20958;-75
2021/07/05 03:40:44;;;;;;;21.40;14.00;;;;;;;19.53;100.00;98607.40;1655185;86;21053;-74
2021/07/05 03:43:11;;;;;;;17.80;14.40;;;;;;;19.54;100.00;98602.03;1655110;86;20933;-75
2021/07/05 03:45:39;;;;;;;18.65;13.75;;;;;;;19.56;100.00;98600.23;1655085;86;21149;-73
2021/07/05 03:48:06;;;;;;;18.25;14.47;;;;;;;19.58;100.00;98604.22;1655081;86;21024;-74
2021/07/05 03:50:33;;;;;;;17.27;13.90;;;;;;;19.63;100.00;98602.42;1655158;86;20982;-74
2021/07/05 03:52:59;;;;;;;24.37;15.55;;;;;;;19.65;100.00;98600.01;1655242;86;20978;-73
2021/07/05 03:55:28;;;;;;;16.65;13.65;;;;;;;19.70;100.00;98598.81;1655126;86;20989;-74
2021/07/05 03:57:55;;;;;;;19.90;14.13;;;;;;;19.74;100.00;98596.22;1655058;86;21159;-74
2021/07/05 04:00:26;;;;;;;19.12;13.58;;;;;;;19.79;100.00;98588.06;1655065;86;21449;-74
2021/07/05 04:02:52;;;;;;;21.40;14.40;;;;;;;19.85;100.00;98595.41;1655422;86;20973;-76
2021/07/05 04:05:19;;;;;;;23.25;13.20;;;;;;;19.91;100.00;98589.03;1655182;86;21465;-75
2021/07/05 04:07:46;;;;;;;15.58;13.40;;;;;;;19.99;100.00;98590.61;1655097;86;20973;-75
2021/07/05 04:10:13;;;;;;;17.02;14.35;;;;;;;20.08;100.00;98597.95;1655103;85;21451;-76
2021/07/05 04:12:40;;;;;;;17.25;13.32;;;;;;;20.16;100.00;98597.34;1655035;86;21005;-74
2021/07/05 04:15:07;;;;;;;15.38;13.13;;;;;;;20.24;100.00;98599.47;1655155;86;20981;-75
2021/07/05 04:17:34;;;;;;;18.70;13.32;;;;;;;20.30;100.00;98595.08;1655057;86;21021;-74
2021/07/05 04:20:00;;;;;;;16.37;12.65;;;;;;;20.39;100.00;98587.11;1655109;86;20983;-74
2021/07/05 04:22:27;;;;;;;17.25;12.90;;;;;;;20.43;100.00;98594.27;1655067;86;21033;-74
2021/07/05 04:24:53;;;;;;;16.95;12.95;;;;;;;20.48;100.00;98592.25;1654995;86;20930;-74
2021/07/05 04:27:19;;;;;;;17.32;12.80;;;;;;;20.56;100.00;98593.22;1655118;86;20981;-74
2021/07/05 04:29:46;;;;;;;15.78;12.35;;;;;;;20.64;100.00;98585.61;1655401;86;20974;-75
2021/07/05 04:32:12;;;;;;;16.80;11.30;;;;;;;20.74;100.00;98582.77;1655107;86;20977;-76
2021/07/05 04:34:40;;;;;;;17.05;12.18;;;;;;;20.84;100.00;98574.72;1655084;86;21155;-74
2021/07/05 04:37:06;;;;;;;15.30;11.63;;;;;;;20.90;100.00;98578.67;1655093;86;21512;-74
2021/07/05 04:39:32;;;;;;;18.82;12.15;;;;;;;20.97;100.00;98579.42;1655045;85;20969;-73
2021/07/05 04:41:59;;;;;;;15.68;10.55;;;;;;;21.05;100.00;98587.14;1655226;86;21514;-73
2021/07/05 04:44:25;;;;;;;15.32;11.43;;;;;;;21.12;100.00;98578.72;1655331;86;20970;-73
2021/07/05 04:46:53;;;;;;;19.70;11.40;;;;;;;21.22;100.00;98580.67;1655100;86;20981;-74
2021/07/05 04:49:21;;;;;;;20.23;12.85;;;;;;;21.27;100.00;98583.03;1654978;86;20969;-75
2021/07/05 04:51:48;;;;;;;17.40;11.35;;;;;;;21.34;100.00;98585.77;1655091;86;20966;-74
2021/07/05 04:54:15;;;;;;;16.32;12.53;;;;;;;21.42;100.00;98589.27;1655241;86;21064;-75
2021/07/05 04:56:42;;;;;;;19.52;11.93;;;;;;;21.49;100.00;98597.58;1655068;86;20994;-75
2021/07/05 04:59:11;;;;;;;15.90;11.40;;;;;;;21.60;100.00;98591.91;1655109;86;21036;-75
2021/07/05 05:01:37;;;;;;;14.90;11.78;;;;;;;21.78;100.00;98595.94;1655083;86;20942;-71
2021/07/05 05:04:04;;;;;;;17.23;11.60;;;;;;;21.91;100.00;98592.82;1655031;86;21048;-71
2021/07/05 05:06:30;;;;;;;16.45;10.72;;;;;;;22.02;100.00;98594.30;1655045;86;20990;-71
2021/07/05 05:08:56;;;;;;;18.42;10.98;;;;;;;22.20;100.00;98591.31;1655370;86;21551;-72
2021/07/05 05:11:24;;;;;;;15.38;10.85;;;;;;;22.37;100.00;98590.92;1642654;85;21562;-72
2021/07/05 05:13:50;;;;;;;18.40;10.70;;;;;;;22.53;99.43;98601.52;1613744;86;20981;-72
2021/07/05 05:16:18;;;;;;;13.95;11.40;;;;;;;22.60;98.26;98594.41;1612639;88;21021;-72
2021/07/05 05:18:44;;;;;;;13.58;10.75;;;;;;;22.64;96.88;98597.95;1612634;89;21020;-72
2021/07/05 05:21:11;;;;;;;19.75;10.25;;;;;;;22.67;96.52;98597.12;1612617;89;21037;-70
2021/07/05 05:23:38;;;;;;;13.20;10.60;;;;;;;22.72;96.16;98597.45;1618515;85;21975;-71
2021/07/05 05:26:05;;;;;;;17.82;11.05;;;;;;;22.78;95.84;98596.38;1650201;86;21028;-70
2021/07/05 05:28:33;;;;;;;17.00;11.43;;;;;;;22.86;95.51;98585.91;1661486;85;21491;-71
2021/07/05 05:31:00;;;;;;;17.20;10.98;;;;;;;23.00;95.59;98583.70;1657700;85;21139;-70
2021/07/05 05:33:26;;;;;;;17.67;10.98;;;;;;;23.17;94.19;98579.62;1653909;86;21087;-70
2021/07/05 05:35:52;;;;;;;12.85;10.53;;;;;;;23.31;93.78;98581.60;1655208;85;22164;-71
2021/07/05 05:38:19;;;;;;;16.62;10.43;;;;;;;23.46;92.91;98574.38;1652311;85;20988;-72
2021/07/05 05:40:45;;;;;;;11.75;9.30;;;;;;;23.59;93.23;98577.58;1630550;86;21052;-71
2021/07/05 05:43:11;;;;;;;13.70;10.00;;;;;;;23.71;92.56;98579.73;1611156;88;21155;-70
2021/07/05 05:45:38;;;;;;;14.53;10.53;;;;;;;23.77;91.04;98583.45;1611346;89;21064;-71
2021/07/05 05:48:05;;;;;;;22.90;11.08;;;;;;;23.78;90.75;98583.02;1611921;88;21169;-70
2021/07/05 05:50:32;;;;;;;12.47;9.75;;;;;;;23.82;90.17;98578.75;1612544;89;20926;-73
2021/07/05 05:52:58;;;;;;;11.75;9.48;;;;;;;23.86;89.92;98583.69;1612775;89;21535;-71
2021/07/05 05:55:24;;;;;;;15.78;9.28;;;;;;;23.85;88.96;98576.50;1613118;89;21003;-72
2021/07/05 05:57:51;;;;;;;10.50;9.05;;;;;;;23.85;89.79;98579.30;1612761;89;21479;-71
2021/07/05 06:00:22;;;;;;;17.62;9.88;;;;;;;23.87;88.79;98584.66;1612957;89;21083;-72
2021/07/05 06:02:49;;;;;;;13.35;9.50;;;;;;;23.94;89.42;98580.33;1629031;85;20977;-70
2021/07/05 06:05:16;;;;;;;13.50;9.18;;;;;;;24.06;89.66;98580.92;1621134;86;21008;-71
2021/07/05 06:07:53;;;;;;;12.63;9.48;;;;;;;24.15;88.73;98583.34;1612662;88;20985;-70
2021/07/05 06:10:19;;;;;;;11.35;9.23;;;;;;;24.22;88.09;98584.61;1617736;85;21005;-68
2021/07/05 06:12:47;;;;;;;12.60;9.05;;;;;;;24.35;88.62;98579.15;1631553;86;21232;-68
2021/07/05 06:15:14;;;;;;;14.43;8.55;;;;;;;24.44;85.75;98584.19;1612905;89;21449;-68
2021/07/05 06:17:41;;;;;;;13.45;8.50;;;;;;;24.49;86.04;98575.27;1625988;85;21032;-68
2021/07/05 06:20:10;;;;;;;10.95;8.08;;;;;;;24.52;84.10;98577.99;1654462;85;21544;-68
2021/07/05 06:22:42;;;;;;;10.65;9.40;;;;;;;24.54;84.49;98577.56;1642164;85;21152;-72
2021/07/05 06:25:10;;;;;;;12.88;8.38;;;;;;;24.64;85.40;98575.14;1618439;86;21963;-70
2021/07/05 06:27:38;;;;;;;13.95;9.20;;;;;;;24.74;85.63;98568.52;1612058;89;20933;-69
2021/07/05 06:30:06;;;;;;;15.48;9.43;;;;;;;24.90;85.24;98567.73;1612087;89;21048;-68
2021/07/05 06:32:33;;;;;;;14.07;8.88;;;;;;;25.01;83.54;98564.89;1612382;89;21017;-69
2021/07/05 06:35:01;;;;;;;13.80;9.35;;;;;;;25.14;83.17;98569.20;1612319;88;21057;-69
2021/07/05 06:37:27;;;;;;;12.07;9.18;;;;;;;25.29;83.26;98572.47;1612450;89;21035;-70
2021/07/05 06:39:53;;;;;;;16.82;9.05;;;;;;;25.43;82.92;98569.28;1612146;89;21481;-69
2021/07/05 06:42:20;;;;;;;15.30;9.90;;;;;;;25.58;83.60;98566.91;1612654;89;21021;-69
2021/07/05 06:44:46;;;;;;;12.25;8.98;;;;;;;25.73;81.17;98564.55;1611151;88;21100;-70
2021/07/05 06:47:14;;;;;;;12.98;8.93;;;;;;;25.77;80.60;98563.23;1611011;89;21066;-70
2021/07/05 06:49:40;;;;;;;10.82;8.08;;;;;;;25.79;79.29;98566.39;1612003;89;21979;-68
2021/07/05 06:52:07;;;;;;;16.77;9.38;;;;;;;25.83;79.67;98561.47;1613772;85;21121;-69
2021/07/05 06:54:33;;;;;;;10.53;8.75;;;;;;;25.84;78.49;98565.86;1637899;86;21517;-68
2021/07/05 06:57:00;;;;;;;9.88;8.23;;;;;;;25.86;77.54;98568.23;1611656;89;20989;-73
2021/07/05 06:59:26;;;;;;;10.85;8.70;;;;;;;25.93;77.96;98573.66;1612551;89;21045;-71
2021/07/05 07:01:53;;;;;;;10.70;8.88;;;;;;;26.01;77.18;98573.62;1612617;87;21114;-72
2021/07/05 07:04:20;;;;;;;10.95;8.78;;;;;;;26.04;76.94;98565.70;1612486;88;20973;-70
2021/07/05 07:06:49;;;;;;;14.85;9.80;;;;;;;26.09;76.19;98569.38;1613001;88;21047;-74
2021/07/05 07:09:16;;;;;;;13.70;9.60;;;;;;;26.13;76.82;98564.45;1612416;88;21045;-74
2021/07/05 07:11:44;;;;;;;10.75;8.68;;;;;;;26.24;77.12;98564.94;1612599;88;21064;-70
2021/07/05 07:14:13;;;;;;;16.77;10.15;;;;;;;26.34;77.25;98566.52;1612702;88;20950;-71
2021/07/05 07:16:42;;;;;;;11.22;8.48;;;;;;;26.38;76.91;98568.00;1612564;89;20937;-81
2021/07/05 07:19:19;;;;;;;13.22;9.95;;;;;;;26.44;77.56;98569.64;1612704;88;21010;-70
2021/07/05 07:21:50;;;;;;;10.68;9.58;;;;;;;26.58;78.07;98566.39;1612641;89;21592;-73
2021/07/05 07:24:17;;;;;;;14.03;10.03;;;;;;;26.78;76.02;98576.84;1612613;89;21033;-71
2021/07/05 07:26:44;;;;;;;14.13;10.10;;;;;;;26.95;76.15;98571.29;1612627;89;21549;-72
2021/07/05 07:29:11;;;;;;;15.65;10.03;;;;;;;27.07;75.18;98572.56;1642171;86;21007;-70
2021/07/05 07:31:39;;;;;;;16.62;10.63;;;;;;;27.13;73.79;98580.63;1670325;85;21526;-70
2021/07/05 07:34:08;;;;;;;15.10;9.48;;;;;;;27.24;73.64;98573.21;1654400;86;20999;-70
2021/07/05 07:36:36;;;;;;;14.43;10.72;;;;;;;27.38;74.17;98566.33;1650931;87;21011;-70
2021/07/05 07:39:10;;;;;;;10.20;9.20;;;;;;;27.49;72.80;98568.17;1650875;87;21155;-70
2021/07/05 07:41:33;;;;;;;12.88;9.70;;;;;;;27.51;71.46;98569.92;1649497;86;20948;-70
2021/07/05 07:44:03;;;;;;;13.55;10.08;;;;;;;27.45;72.04;98572.52;1650963;87;21454;-70
2021/07/05 07:46:30;;;;;;;14.38;10.28;;;;;;;27.43;72.73;98577.82;1650966;87;20948;-69
2021/07/05 07:48:56;;;;;;;11.03;8.85;;;;;;;27.44;72.54;98583.63;1650904;87;20932;-70
2021/07/05 07:51:23;;;;;;;13.93;9.40;;;;;;;27.47;72.53;98578.49;1650864;87;21153;-70
2021/07/05 07:53:50;;;;;;;12.20;8.48;;;;;;;27.48;71.16;98581.48;1650765;86;21484;-70
2021/07/05 07:56:17;;;;;;;395.57;50.03;;;;;;;27.47;72.26;98594.00;1652820;86;21039;-70
2021/07/05 07:58:43;;;;;;;113.00;22.67;;;;;;;27.48;69.94;98582.89;1651157;86;20920;-69
2021/07/05 08:01:11;;;;;;;14.78;9.03;;;;;;;27.56;71.40;98581.41;1651880;86;20891;-69
2021/07/05 08:03:37;;;;;;;12.73;8.73;;;;;;;27.68;70.93;98590.33;1653716;86;21186;-70
2021/07/05 08:06:04;;;;;;;24.45;9.58;;;;;;;27.82;70.07;98591.23;1653740;86;21065;-70
2021/07/05 08:08:30;;;;;;;13.35;8.03;;;;;;;27.95;69.84;98591.36;1653623;86;20945;-70
2021/07/05 08:10:59;;;;;;;13.50;8.08;;;;;;;28.19;69.35;98594.55;1653698;86;20974;-69
2021/07/05 08:13:25;;;;;;;15.58;8.35;;;;;;;28.32;68.42;98593.09;1653736;86;21066;-70
2021/07/05 08:15:53;;;;;;;11.88;8.28;;;;;;;28.38;66.86;98597.53;1653760;86;21469;-70
2021/07/05 08:18:21;;;;;;;14.25;8.90;;;;;;;28.38;67.51;98591.26;1654608;85;20902;-70
2021/07/05 08:20:48;;;;;;;13.35;7.50;;;;;;;28.35;67.00;98585.13;1655114;86;20962;-70
2021/07/05 08:23:14;;;;;;;11.20;6.45;;;;;;;28.23;66.16;98583.96;1655155;86;21016;-69
2021/07/05 08:25:41;;;;;;;8.80;6.30;;;;;;;28.08;66.06;98582.08;1655144;86;20929;-69
2021/07/05 08:28:07;;;;;;;8.60;6.00;;;;;;;28.06;66.10;98582.53;1654913;85;21090;-69
2021/07/05 08:30:34;;;;;;;9.73;6.10;;;;;;;28.21;66.32;98587.86;1653822;86;20957;-69
2021/07/05 08:33:01;;;;;;;16.23;7.53;;;;;;;28.38;66.19;98588.44;1650788;87;20884;-69
2021/07/05 08:35:27;;;;;;;8.58;5.95;;;;;;;28.53;65.43;98587.29;1650828;87;20952;-69
2021/07/05 08:37:55;;;;;;;12.15;6.28;;;;;;;28.77;64.60;98586.19;1650780;87;20948;-69
2021/07/05 08:40:22;;;;;;;8.78;5.53;;;;;;;29.20;62.70;98585.31;1651041;87;21190;-70
2021/07/05 08:42:49;;;;;;;16.15;5.33;;;;;;;29.61;62.26;98594.56;1650788;86;20970;-70
2021/07/05 08:45:16;;;;;;;10.05;4.95;;;;;;;29.88;57.87;98590.37;1650819;85;20948;-71
2021/07/05 08:47:44;;;;;;;10.00;5.87;;;;;;;29.98;57.20;98586.94;1650886;87;21467;-70
2021/07/05 08:50:12;;;;;;;14.55;5.92;;;;;;;29.96;57.12;98590.86;1654700;86;21009;-70
2021/07/05 08:52:42;;;;;;;8.30;5.33;;;;;;;29.88;57.36;98593.21;1651086;87;20947;-70
2021/07/05 08:55:08;;;;;;;6.65;5.15;;;;;;;29.73;57.43;98600.72;1651060;86;20971;-70
2021/07/05 08:57:41;;;;;;;8.48;4.83;;;;;;;29.65;56.00;98593.79;1650834;86;20932;-70
2021/07/05 09:00:13;;;;;;;12.97;6.63;;;;;;;29.62;54.83;98597.55;1651383;86;20999;-71
2021/07/05 09:02:39;;;;;;;10.03;5.72;;;;;;;29.75;55.30;98602.45;1650879;87;20912;-71
2021/07/05 09:05:07;;;;;;;10.25;5.45;;;;;;;30.01;55.44;98596.72;1651139;86;20995;-71
2021/07/05 09:07:36;;;;;;;7.05;4.80;;;;;;;30.36;53.87;98591.51;1650983;87;20933;-71
2021/07/05 09:10:06;;;;;;;8.18;5.30;;;;;;;30.60;53.46;98587.42;1607057;87;21459;-71
2021/07/05 09:12:34;;;;;;;13.00;5.10;;;;;;;30.69;52.48;98593.67;1650984;86;21027;-71
2021/07/05 09:15:09;;;;;;;13.83;5.65;;;;;;;30.79;51.70;98599.48;1651217;86;20916;-71
2021/07/05 09:17:37;;;;;;;11.45;5.58;;;;;;;30.85;52.27;98595.53;1649913;86;22922;-71
2021/07/05 09:20:15;;;;;;;7.80;5.08;;;;;;;30.93;52.07;98590.95;1651129;86;20912;-71
2021/07/05 09:23:12;;;;;;;6.92;4.83;;;;;;;30.90;52.77;98598.35;1652451;86;20927;-71
2021/07/05 09:25:44;;;;;;;9.23;5.20;;;;;;;30.72;51.72;98599.81;1651052;86;20920;-71
2021/07/05 09:28:11;;;;;;;8.85;4.87;;;;;;;30.46;51.61;98597.95;1649776;85;21035;-72
2021/07/05 09:30:43;;;;;;;7.47;5.25;;;;;;;30.16;53.21;98596.23;1633050;85;21520;-72
2021/07/05 09:33:23;;;;;;;8.25;4.70;;;;;;;30.13;53.33;98594.97;1627324;86;20886;-72
2021/07/05 09:35:59;;;;;;;7.35;4.40;;;;;;;30.28;54.09;98593.08;1613017;89;20902;-71
2021/07/05 09:38:34;;;;;;;5.50;3.90;;;;;;;30.25;50.92;98594.66;1612804;89;21033;-72
2021/07/05 09:41:27;;;;;;;68.28;16.20;;;;;;;30.06;50.85;98598.89;1613067;89;21005;-71
2021/07/05 09:44:00;;;;;;;10.55;4.70;;;;;;;29.86;51.64;98607.04;1600868;88;21588;-72
2021/07/05 09:46:46;;;;;;;10.28;5.08;;;;;;;29.69;51.85;98604.33;1612896;89;20921;-71
2021/07/05 09:49:21;;;;;;;15.48;6.25;;;;;;;29.55;52.10;98607.91;1612800;89;20893;-72
2021/07/05 09:52:09;;;;;;;9.68;4.78;;;;;;;29.48;52.79;98613.06;1613059;89;21017;-71
2021/07/05 09:54:36;;;;;;;6.62;4.30;;;;;;;29.42;52.06;98607.88;1603719;89;20989;-72
2021/07/05 09:57:24;;;;;;;6.33;4.15;;;;;;;29.25;52.84;98614.38;1612725;89;21161;-75
2021/07/05 09:59:35;;;;;;;4.92;4.08;;;;;;;29.10;51.57;98600.03;1626733;85;21583;-72
2021/07/05 10:02:01;;;;;;;8.68;4.10;;;;;;;28.95;52.35;98606.06;1626742;86;21464;-72
2021/07/05 10:04:37;;;;;;;7.55;4.03;;;;;;;28.87;53.18;98604.17;1655027;85;21568;-73
2021/07/05 10:07:05;;;;;;;8.30;4.40;;;;;;;28.91;54.05;98602.59;1655218;86;20929;-71
2021/07/05 10:09:44;;;;;;;7.83;4.53;;;;;;;29.03;52.87;98602.34;1655172;86;21175;-68
2021/07/05 10:12:21;;;;;;;5.90;4.42;;;;;;;29.26;52.54;98597.59;1651753;86;21027;-70
2021/07/05 10:15:08;;;;;;;6.42;4.30;;;;;;;29.36;53.59;98602.65;1657890;86;21032;-72
2021/07/05 10:17:46;;;;;;;8.75;5.28;;;;;;;29.28;52.42;98599.32;1655837;86;20953;-79
2021/07/05 10:20:32;;;;;;;9.13;5.45;;;;;;;28.91;53.16;98606.83;1655212;86;20882;-70
2021/07/05 10:23:02;;;;;;;9.65;5.50;;;;;;;28.48;54.82;98602.78;1655471;86;21471;-70
2021/07/05 10:25:32;;;;;;;9.05;5.65;;;;;;;28.18;55.41;98595.02;1655061;86;21003;-70
2021/07/05 10:27:58;;;;;;;9.20;5.20;;;;;;;28.00;55.79;98592.81;1655178;86;20938;-71
2021/07/05 10:30:25;;;;;;;9.50;5.75;;;;;;;27.91;56.94;98594.14;1655192;86;21049;-72
2021/07/05 10:32:52;;;;;;;9.68;5.15;;;;;;;27.87;57.72;98598.50;1655252;86;20929;-72
2021/07/05 10:35:24;;;;;;;7.65;5.78;;;;;;;27.84;57.82;98594.39;1648371;85;21536;-74
2021/07/05 10:38:06;;;;;;;10.03;4.87;;;;;;;27.97;59.14;98592.31;1631684;86;21033;-74
2021/07/05 10:40:39;;;;;;;6.30;4.72;;;;;;;28.26;57.63;98585.87;1601911;89;21379;-69
2021/07/05 10:43:08;;;;;;;7.15;4.75;;;;;;;28.78;56.64;98591.37;1612984;88;21066;-69
2021/07/05 10:45:44;;;;;;;8.23;4.85;;;;;;;29.35;56.11;98591.97;1612705;89;21056;-68
2021/07/05 10:48:14;;;;;;;7.70;4.90;;;;;;;29.96;55.91;98585.98;1613029;89;21149;-69
2021/07/05 10:50:49;;;;;;;7.20;5.03;;;;;;;30.57;53.92;98574.21;1612520;88;20946;-67
2021/07/05 10:53:36;;;;;;;6.15;4.45;;;;;;;31.07;52.34;98574.69;1623481;88;21108;-67
2021/07/05 10:56:32;;;;;;;6.90;4.45;;;;;;;31.38;50.91;98573.77;1601681;88;37914;-67
2021/07/05 10:59:17;;;;;;;10.95;4.78;;;;;;;31.60;49.29;98575.55;1623448;88;20969;-66
2021/07/05 11:01:46;;;;;;;10.28;4.62;;;;;;;31.61;50.18;98570.02;1612735;88;22038;-67
2021/07/05 11:04:33;;;;;;;7.80;5.10;;;;;;;31.49;50.24;98575.44;1602055;89;21493;-67
2021/07/05 11:07:16;;;;;;;7.62;4.55;;;;;;;31.16;49.17;98567.59;1642964;85;20985;-68
2021/07/05 11:09:55;;;;;;;9.20;4.45;;;;;;;30.67;49.12;98569.29;1640590;86;20915;-66
2021/07/05 11:12:31;;;;;;;7.22;4.83;;;;;;;30.41;50.51;98567.44;1650549;86;20933;-66
2021/07/05 11:14:59;;;;;;;10.13;4.53;;;;;;;30.52;51.88;98569.94;1655122;86;21013;-67
2021/07/05 11:17:26;;;;;;;6.53;4.10;;;;;;;30.71;51.51;98569.28;1655104;86;20985;-67
2021/07/05 11:19:57;;;;;;;8.13;4.53;;;;;;;30.71;49.25;98570.70;1650375;85;21060;-66
2021/07/05 11:22:35;;;;;;;8.30;4.72;;;;;;;30.47;48.30;98572.62;1654806;86;20997;-67
2021/07/05 11:25:23;;;;;;;5.35;4.10;;;;;;;30.22;49.63;98570.91;1658901;85;20930;-67
2021/07/05 11:28:02;;;;;;;7.12;4.55;;;;;;;30.23;51.57;98567.61;1657676;85;21157;-68